Time;durP1;ratioP1;P1;durP2;ratioP2;P2;SDS_P1;SDS_P2;PMS_P1;PMS_P2;Temp;Humidity;BMP_temperature;BMP_pressure;BME280_temperature;BME280_humidity;BME280_pressure;Samples;Min_cycle;Max_cycle;Signal;HPM_P1;HPM_P2
2021/07/24 00:02:05;;;;;;;15.65;12.32;;;14.20;99.90;;;14.67;100.00;94689.00;2400805;56;27563;-50
2021/07/24 00:04:52;;;;;;;14.77;12.27;;;14.20;99.90;;;14.55;100.00;94682.00;2184164;57;27206;-51
2021/07/24 00:07:38;;;;;;;15.18;12.65;;;14.10;99.90;;;14.59;100.00;94682.00;2403885;56;26301;-51
2021/07/24 00:10:25;;;;;;;16.40;12.30;;;14.10;99.90;;;14.68;100.00;94679.00;2180699;57;26716;-51
2021/07/24 00:13:11;;;;;;;17.03;12.00;;;14.10;99.90;;;14.76;100.00;94683.00;2400879;56;26949;-50
2021/07/24 00:15:58;;;;;;;14.30;11.67;;;14.10;99.90;;;14.66;100.00;94670.00;2399300;56;26733;-50
2021/07/24 00:18:44;;;;;;;15.07;11.88;;;14.00;99.90;;;14.61;100.00;94677.00;2184982;57;27296;-50
2021/07/24 00:21:30;;;;;;;14.27;12.15;;;14.00;99.90;;;14.68;100.00;94675.00;2401352;56;26779;-50
2021/07/24 00:24:17;;;;;;;16.02;12.73;;;14.00;99.90;;;14.59;100.00;94669.00;2184868;57;26700;-51
2021/07/24 00:27:07;;;;;;;15.75;12.13;;;14.00;99.90;;;14.60;100.00;94676.00;2402371;56;27154;-50
2021/07/24 00:29:54;;;;;;;16.75;11.75;;;14.00;99.90;;;14.62;100.00;94673.00;2184463;57;26186;-51
2021/07/24 00:32:41;;;;;;;14.43;11.50;;;14.00;99.90;;;14.44;100.00;94662.00;2400406;56;27477;-50
2021/07/24 00:35:27;;;;;;;12.97;11.57;;;13.90;99.90;;;14.49;100.00;94664.00;2182221;57;26901;-51
2021/07/24 00:38:14;;;;;;;14.68;11.95;;;13.90;99.90;;;14.43;100.00;94656.00;2398199;56;27361;-50
2021/07/24 00:41:08;;;;;;;14.10;12.05;;;13.80;99.90;;;14.37;100.00;94655.00;2173437;57;27350;-50
2021/07/24 00:46:51;;;;;;;14.25;11.50;;;13.80;99.90;;;14.37;100.00;94634.00;2375764;55;34329;-50
2021/07/24 00:49:38;;;;;;;16.50;12.63;;;13.70;99.90;;;14.23;100.00;94643.00;2164702;56;26776;-51
2021/07/24 00:55:22;;;;;;;13.35;11.60;;;13.70;99.90;;;14.38;100.00;94625.00;2391834;55;34062;-50
2021/07/24 00:58:26;;;;;;;13.90;12.27;;;13.70;99.90;;;14.19;100.00;94632.00;2374322;56;27293;-50
2021/07/24 01:01:12;;;;;;;15.37;12.93;;;13.60;99.90;;;14.17;100.00;94633.00;2373309;56;26881;-50
2021/07/24 01:06:57;;;;;;;14.73;12.10;;;13.60;99.90;;;14.18;100.00;94616.00;2449821;54;34523;-50
2021/07/24 01:09:43;;;;;;;17.90;12.43;;;13.50;99.90;;;14.10;100.00;94624.00;2210694;54;26758;-50
2021/07/24 01:12:32;;;;;;;17.10;12.15;;;13.50;99.90;;;14.03;100.00;94622.00;2444263;54;26418;-50
2021/07/24 01:15:18;;;;;;;15.50;12.87;;;13.50;99.90;;;13.96;100.00;94619.00;2237610;54;27053;-50
2021/07/24 01:18:05;;;;;;;13.50;10.98;;;13.40;99.90;;;13.90;100.00;94612.00;2466374;54;27024;-50
2021/07/24 01:23:47;;;;;;;14.47;12.13;;;13.40;99.90;;;14.11;100.00;94605.00;2475997;53;34848;-51
2021/07/24 01:26:35;;;;;;;15.38;12.20;;;13.40;99.90;;;13.96;100.00;94615.00;2231545;54;26149;-50
2021/07/24 01:29:23;;;;;;;14.97;11.80;;;13.40;99.90;;;13.92;100.00;94615.00;2471788;54;26775;-50
2021/07/24 01:32:10;;;;;;;14.73;11.70;;;13.30;99.90;;;13.90;100.00;94622.00;2233669;54;27082;-52
2021/07/24 01:34:56;;;;;;;15.27;12.57;;;13.30;99.90;;;13.89;100.00;94609.00;2471615;54;26708;-50
2021/07/24 01:37:43;;;;;;;17.35;13.65;;;13.30;99.90;;;13.84;100.00;94617.00;2504616;53;27554;-51
2021/07/24 01:40:29;;;;;;;15.73;11.75;;;13.30;99.90;;;13.84;100.00;94623.00;2267886;53;26709;-51
2021/07/24 01:43:16;;;;;;;15.73;12.05;;;13.20;99.90;;;13.76;100.00;94618.00;2272256;53;26855;-50
2021/07/24 01:46:03;;;;;;;13.87;11.37;;;13.20;99.90;;;13.76;100.00;94612.00;2269196;54;26174;-51
2021/07/24 01:58:05;;;;;;;14.70;11.57;;;13.10;99.90;;;13.85;100.00;94598.00;2441184;54;33596;-50
2021/07/24 02:00:54;;;;;;;15.07;11.57;;;13.10;99.90;;;13.68;100.00;94597.00;2186800;56;27316;-51
2021/07/24 02:03:44;;;;;;;16.73;12.47;;;13.10;99.90;;;13.73;100.00;94599.00;2405253;56;26742;-50
2021/07/24 02:06:31;;;;;;;15.20;11.77;;;13.20;99.90;;;13.77;100.00;94596.00;2404036;56;27273;-51
2021/07/24 02:09:17;;;;;;;14.97;11.93;;;13.10;99.90;;;13.67;100.00;94601.00;2195745;55;27381;-50
2021/07/24 02:15:00;;;;;;;15.40;12.57;;;13.10;99.90;;;13.78;100.00;94591.00;2348618;55;34033;-50
2021/07/24 02:17:46;;;;;;;12.90;11.07;;;13.00;99.90;;;13.70;100.00;94599.00;2340798;57;26824;-50
2021/07/24 02:23:30;;;;;;;15.38;11.60;;;13.10;99.90;;;13.72;100.00;94582.00;2430405;54;34496;-52
2021/07/24 02:26:16;;;;;;;15.70;11.85;;;13.00;99.90;;;13.53;100.00;94599.00;2202945;56;26880;-51
2021/07/24 02:29:03;;;;;;;13.67;12.00;;;13.00;99.90;;;13.58;100.00;94602.00;2415592;55;26681;-50
2021/07/24 02:31:50;;;;;;;14.93;12.13;;;13.00;99.90;;;13.52;100.00;94597.00;2191059;55;26773;-51
2021/07/24 02:34:36;;;;;;;15.32;12.10;;;13.00;99.90;;;13.43;100.00;94604.00;2198071;56;26679;-51
2021/07/24 02:37:23;;;;;;;17.45;12.37;;;12.90;99.90;;;13.47;100.00;94608.00;2191737;56;26594;-51
2021/07/24 02:40:11;;;;;;;16.13;12.13;;;12.90;99.90;;;13.46;100.00;94611.00;2421225;55;26732;-51
2021/07/24 02:45:54;;;;;;;13.83;12.03;;;12.90;99.90;;;13.62;100.00;94602.00;2477914;52;34279;-50
2021/07/24 02:51:38;;;;;;;16.20;12.87;;;12.90;99.90;;;13.66;100.00;94604.00;2495138;52;34121;-51
2021/07/24 02:57:20;;;;;;;16.40;13.00;;;12.90;99.90;;;13.47;100.00;94610.00;2410576;54;34207;-52
2021/07/24 03:00:09;;;;;;;13.57;11.68;;;12.80;99.90;;;13.34;100.00;94608.00;2199618;55;26668;-52
2021/07/24 03:02:55;;;;;;;14.43;11.57;;;12.90;99.90;;;13.38;100.00;94612.00;2393137;55;26276;-51
2021/07/24 03:05:43;;;;;;;15.27;11.70;;;12.90;99.90;;;13.47;100.00;94610.00;2155963;55;27028;-51
2021/07/24 03:08:30;;;;;;;13.50;11.00;;;12.90;99.90;;;13.50;100.00;94610.00;2387893;55;27052;-51
2021/07/24 03:14:12;;;;;;;14.48;11.75;;;12.90;99.90;;;13.64;100.00;94606.00;2368240;55;34354;-51
2021/07/24 03:16:59;;;;;;;17.55;11.68;;;12.90;99.90;;;13.50;100.00;94614.00;2176167;54;27270;-51
2021/07/24 03:19:46;;;;;;;14.23;11.53;;;12.90;99.90;;;13.39;100.00;94621.00;2401186;55;27051;-51
2021/07/24 03:22:32;;;;;;;15.18;11.98;;;12.80;99.90;;;13.32;100.00;94616.00;2184491;56;26724;-51
2021/07/24 03:25:20;;;;;;;15.60;11.67;;;12.80;99.90;;;13.31;100.00;94613.00;2401342;55;26836;-51
2021/07/24 03:28:07;;;;;;;16.17;12.40;;;12.80;99.90;;;13.26;100.00;94616.00;2179421;56;26631;-51
2021/07/24 03:33:49;;;;;;;14.10;11.57;;;12.80;99.90;;;13.44;100.00;94606.00;2414579;55;34015;-50
2021/07/24 03:36:35;;;;;;;13.93;12.10;;;12.90;99.90;;;13.52;100.00;94607.00;2382118;55;27425;-51
2021/07/24 03:42:19;;;;;;;14.52;11.60;;;12.80;99.90;;;13.46;100.00;94593.00;2400893;55;33868;-51
2021/07/24 03:48:06;;;;;;;14.05;11.57;;;12.90;99.90;;;13.48;100.00;94594.00;2370279;55;34332;-53
2021/07/24 03:53:50;;;;;;;14.20;12.00;;;12.90;99.90;;;13.59;100.00;94587.00;2435900;54;34090;-51
2021/07/24 03:56:37;;;;;;;14.03;12.33;;;13.00;99.90;;;13.57;100.00;94590.00;2200168;56;26924;-50
2021/07/24 03:59:23;;;;;;;14.38;11.65;;;13.00;99.90;;;13.62;100.00;94600.00;2206383;55;27302;-51
2021/07/24 04:02:17;;;;;;;13.80;11.43;;;13.00;99.90;;;13.54;100.00;94601.00;2436291;55;26818;-51
2021/07/24 04:05:04;;;;;;;14.80;12.17;;;13.00;99.90;;;13.61;100.00;94594.00;2422606;55;27391;-51
2021/07/24 04:10:47;;;;;;;14.63;11.53;;;13.00;99.90;;;13.61;100.00;94582.00;2338597;56;34351;-53
2021/07/24 04:13:35;;;;;;;18.43;12.60;;;13.00;99.90;;;13.52;100.00;94597.00;2111480;57;27204;-51
2021/07/24 04:19:18;;;;;;;15.98;12.82;;;13.10;99.90;;;13.81;100.00;94581.00;2378033;55;35156;-51
2021/07/24 04:25:01;;;;;;;15.20;12.03;;;13.20;99.90;;;13.97;100.00;94575.00;2338480;56;34653;-51
2021/07/24 04:27:48;;;;;;;13.82;11.57;;;13.40;99.90;;;13.99;100.00;94589.00;2102690;58;27166;-50
2021/07/24 04:30:34;;;;;;;15.90;12.55;;;13.40;99.90;;;14.06;100.00;94589.00;2303197;58;26672;-51
2021/07/24 04:33:21;;;;;;;15.10;13.27;;;13.50;99.90;;;14.19;100.00;94578.00;2301569;58;27289;-51
2021/07/24 04:36:07;;;;;;;16.12;13.18;;;13.60;99.90;;;14.19;100.00;94570.00;2087417;58;27331;-51
2021/07/24 04:38:53;;;;;;;15.60;13.50;;;13.60;99.90;;;14.17;100.00;94565.00;2305120;58;26774;-51
2021/07/24 04:41:41;;;;;;;16.62;13.35;;;13.70;99.90;;;14.29;100.00;94578.00;2112596;58;26623;-51
2021/07/24 04:44:27;;;;;;;18.52;14.13;;;13.70;99.90;;;14.33;100.00;94566.00;2340462;57;27207;-51
2021/07/24 04:47:14;;;;;;;17.40;14.53;;;13.80;99.90;;;14.41;100.00;94579.00;2141768;59;27149;-51
2021/07/24 04:50:00;;;;;;;19.33;14.38;;;13.90;99.90;;;14.43;100.00;94586.00;2347782;57;26868;-51
2021/07/24 04:52:46;;;;;;;16.93;13.47;;;13.90;99.90;;;14.53;100.00;94578.00;2141776;58;26626;-52
2021/07/24 04:55:36;;;;;;;15.10;12.53;;;14.00;99.90;;;14.62;100.00;94568.00;2347713;57;26768;-51
2021/07/24 04:58:22;;;;;;;14.50;12.97;;;14.10;99.90;;;14.83;100.00;94568.00;2141323;58;26904;-52
2021/07/24 05:01:08;;;;;;;17.37;12.98;;;14.20;99.90;;;15.02;100.00;94577.00;2141614;58;26755;-51
2021/07/24 05:03:56;;;;;;;17.27;13.00;;;14.50;99.90;;;15.24;100.00;94560.00;2345465;57;26740;-50
2021/07/24 05:06:42;;;;;;;14.63;12.75;;;14.60;99.90;;;15.27;100.00;94564.00;2128590;58;27448;-51
2021/07/24 05:09:29;;;;;;;15.38;12.88;;;14.60;99.90;;;15.26;100.00;94565.00;2335778;57;26901;-51
2021/07/24 05:12:16;;;;;;;17.08;13.95;;;14.70;99.90;;;15.40;100.00;94572.00;2128573;58;27005;-51
2021/07/24 05:15:02;;;;;;;17.80;13.87;;;14.80;99.90;;;15.54;100.00;94568.00;2347797;57;26709;-51
2021/07/24 05:20:46;;;;;;;16.92;14.05;;;15.10;99.90;;;15.92;100.00;94560.00;2407003;54;34770;-51
2021/07/24 05:23:32;;;;;;;15.05;13.05;;;15.30;99.90;;;16.03;100.00;94563.00;2161353;56;27341;-51
2021/07/24 05:26:19;;;;;;;16.00;13.47;;;15.50;99.90;;;16.11;100.00;94560.00;2379086;56;26672;-51
2021/07/24 05:32:03;;;;;;;15.45;12.93;;;15.70;99.90;;;16.48;100.00;94539.00;2368576;55;34216;-51
2021/07/24 05:34:50;;;;;;;14.93;12.90;;;15.90;99.90;;;16.58;100.00;94537.00;2136874;57;26871;-50
2021/07/24 05:37:36;;;;;;;13.98;12.48;;;16.00;99.90;;;16.75;100.00;94540.00;2349063;56;26901;-53
2021/07/24 05:40:23;;;;;;;15.40;12.98;;;16.20;99.90;;;17.04;100.00;94536.00;2144273;56;26772;-51
2021/07/24 05:43:09;;;;;;;17.90;13.23;;;16.50;99.90;;;17.38;100.00;94533.00;2364726;56;26895;-51
2021/07/24 05:45:56;;;;;;;17.62;13.35;;;16.80;99.90;;;17.79;100.00;94527.00;2145938;57;27361;-51
2021/07/24 05:51:40;;;;;;;15.77;13.10;;;17.50;99.90;;;18.69;100.00;94513.00;2465600;53;34182;-51
2021/07/24 05:57:23;;;;;;;17.27;13.75;;;18.20;99.90;;;19.30;100.00;94511.00;2417925;55;33534;-51
2021/07/24 06:03:09;;;;;;;16.12;13.48;;;18.90;99.90;;;19.96;100.00;94523.00;2410300;54;34439;-51
2021/07/24 06:05:55;;;;;;;16.87;13.48;;;19.20;99.90;;;20.19;100.00;94524.00;2198732;56;26806;-51
2021/07/24 06:08:41;;;;;;;15.68;13.25;;;19.20;99.90;;;20.26;100.00;94512.00;2397572;55;27279;-51
2021/07/24 06:11:28;;;;;;;17.15;13.43;;;19.60;99.90;;;20.65;100.00;94506.00;2183656;55;26120;-52
2021/07/24 06:14:14;;;;;;;14.45;12.43;;;19.90;99.90;;;20.94;100.00;94512.00;2399418;55;26664;-51
2021/07/24 06:17:00;;;;;;;14.93;12.18;;;20.30;99.90;;;21.79;100.00;94511.00;2218387;56;27398;-51
2021/07/24 06:19:46;;;;;;;15.35;12.65;;;21.00;99.90;;;22.88;100.00;94522.00;2193436;55;27392;-51
2021/07/24 06:25:30;;;;;;;18.52;12.88;;;22.80;99.90;;;25.39;100.00;94509.00;2544229;52;33391;-51
2021/07/24 06:28:17;;;;;;;15.43;12.27;;;24.20;99.90;;;27.09;100.00;94511.00;2316858;53;27002;-52
2021/07/24 06:31:04;;;;;;;13.00;11.75;;;25.20;99.90;;;28.01;100.00;94514.00;2315493;53;26250;-52
2021/07/24 06:33:50;;;;;;;13.98;11.90;;;25.70;99.90;;;28.42;100.00;94525.00;2313043;54;26585;-52
2021/07/24 06:48:23;;;;;;;14.20;11.40;;;28.20;99.90;;;32.41;93.37;94548.00;2415268;55;33714;-50
2021/07/24 06:54:07;;;;;;;13.52;12.18;;;29.00;99.90;;;31.65;88.52;94552.00;2398584;55;33207;-53
2021/07/24 06:59:49;;;;;;;13.88;12.45;;;28.50;99.90;;;32.13;93.55;94557.00;2348282;55;33290;-53
2021/07/24 07:02:36;;;;;;;13.13;11.15;;;29.80;99.90;;;33.12;86.75;94555.00;2121463;56;25760;-50
2021/07/24 07:05:22;;;;;;;13.35;11.95;;;29.90;99.90;;;31.99;92.14;94566.00;2336697;57;25683;-50
2021/07/24 07:08:09;;;;;;;13.20;11.82;;;30.00;99.90;;;32.82;82.12;94565.00;2134588;56;25947;-51
2021/07/24 07:11:01;;;;;;;13.25;11.75;;;29.70;99.90;;;31.76;78.34;94578.00;2369134;56;25651;-50
2021/07/24 07:13:47;;;;;;;12.43;11.23;;;29.40;99.90;;;31.60;82.30;94580.00;2161984;56;26154;-51
2021/07/24 07:16:34;;;;;;;13.13;11.73;;;30.00;99.90;;;32.95;73.97;94576.00;2150615;56;25128;-50
2021/07/24 07:19:21;;;;;;;13.80;12.30;;;31.20;99.90;;;34.45;69.46;94578.00;2364200;56;25789;-51
2021/07/24 07:22:07;;;;;;;12.27;10.88;;;32.00;99.90;;;34.95;72.14;94587.00;2155394;56;25595;-50
2021/07/24 07:24:53;;;;;;;14.60;12.40;;;32.90;99.90;;;36.20;53.82;94603.00;2373137;56;26191;-50
2021/07/24 07:27:42;;;;;;;12.43;11.12;;;32.40;99.90;;;34.41;58.51;94607.00;2154199;56;26149;-50
2021/07/24 07:30:29;;;;;;;12.70;11.38;;;30.90;99.90;;;32.41;75.62;94611.00;2372680;56;26942;-51
2021/07/24 07:33:15;;;;;;;12.93;11.57;;;31.10;99.90;;;33.48;77.91;94639.00;2158068;56;26986;-50
2021/07/24 07:36:02;;;;;;;13.25;11.85;;;30.10;99.90;;;30.61;78.11;94706.00;2372824;56;25658;-49
2021/07/24 07:41:45;;;;;;;16.30;12.73;;;25.40;99.90;;;25.96;100.00;94716.00;2431276;54;34033;-51
2021/07/24 07:44:31;;;;;;;13.38;11.75;;;25.80;99.90;;;26.66;100.00;94723.00;2181765;56;25721;-51
2021/07/24 07:50:14;;;;;;;14.48;11.10;;;25.60;99.90;;;25.82;100.00;94709.00;2319662;56;34936;-51
2021/07/24 07:53:01;;;;;;;14.68;12.18;;;24.00;99.90;;;24.16;100.00;94707.00;2088579;58;26727;-51
2021/07/24 07:55:47;;;;;;;14.82;12.05;;;23.20;99.90;;;23.48;100.00;94703.00;2091803;58;26653;-51
2021/07/24 08:01:31;;;;;;;17.25;10.85;;;22.50;99.90;;;22.98;100.00;94702.00;2452926;54;34207;-51
2021/07/24 08:04:17;;;;;;;14.75;11.05;;;22.20;99.90;;;22.70;100.00;94707.00;2208517;55;26737;-51
2021/07/24 08:07:04;;;;;;;15.68;11.38;;;21.90;99.90;;;22.26;100.00;94717.00;2250437;54;26660;-51
2021/07/24 08:09:51;;;;;;;14.10;11.68;;;21.70;99.90;;;21.94;100.00;94723.00;2404743;55;26718;-52
2021/07/24 08:12:37;;;;;;;20.25;12.05;;;21.40;99.90;;;21.65;100.00;94719.00;2189598;55;27468;-51
2021/07/24 08:15:23;;;;;;;14.07;12.00;;;21.20;99.90;;;21.50;100.00;94727.00;2399558;55;27570;-51
2021/07/24 08:18:10;;;;;;;14.05;12.20;;;21.00;99.90;;;21.22;100.00;94720.00;2183340;55;26874;-52
2021/07/24 08:23:54;;;;;;;16.48;12.65;;;20.50;99.90;;;20.84;100.00;94698.00;2372892;55;33697;-51
2021/07/24 08:26:41;;;;;;;15.98;12.43;;;20.30;99.90;;;20.64;100.00;94699.00;2161751;56;27177;-50
2021/07/24 08:29:27;;;;;;;16.45;12.70;;;20.20;99.90;;;20.62;100.00;94700.00;2158414;56;27330;-51
2021/07/24 08:32:13;;;;;;;16.25;13.95;;;20.20;99.90;;;20.55;100.00;94692.00;2397404;55;26152;-51
2021/07/24 08:35:00;;;;;;;16.17;13.18;;;20.10;99.90;;;20.54;100.00;94691.00;2186372;56;26862;-51
2021/07/24 08:37:46;;;;;;;15.50;12.57;;;20.10;99.90;;;20.60;100.00;94701.00;2398327;55;26857;-53
2021/07/24 08:40:33;;;;;;;17.73;14.25;;;19.90;99.90;;;20.17;100.00;94742.00;2186734;55;26861;-51
2021/07/24 08:43:20;;;;;;;17.52;14.23;;;19.60;99.90;;;19.78;100.00;94753.00;2392522;55;26665;-51
2021/07/24 08:46:07;;;;;;;16.52;13.80;;;19.40;99.90;;;19.83;100.00;94752.00;2175148;55;26605;-51
2021/07/24 08:48:53;;;;;;;16.67;13.45;;;19.40;99.90;;;19.76;100.00;94735.00;2385710;55;26900;-51
2021/07/24 08:51:40;;;;;;;14.68;12.35;;;19.40;99.90;;;19.80;100.00;94723.00;2174109;55;26609;-50
2021/07/24 08:54:27;;;;;;;16.25;12.70;;;19.50;99.90;;;20.03;100.00;94715.00;2388501;55;27471;-51
2021/07/24 09:00:18;;;;;;;15.05;12.13;;;20.00;99.90;;;20.90;100.00;94695.00;2357544;55;33871;-50
2021/07/24 09:03:05;;;;;;;16.87;12.07;;;20.20;99.90;;;20.90;100.00;94703.00;2146370;57;26742;-51
2021/07/24 09:05:52;;;;;;;15.02;12.55;;;20.60;99.90;;;21.32;100.00;94709.00;2363902;56;26810;-52
2021/07/24 09:08:40;;;;;;;14.35;12.40;;;20.80;99.90;;;21.53;100.00;94711.00;2133093;57;26899;-51
2021/07/24 09:11:26;;;;;;;15.70;11.73;;;21.10;99.90;;;21.87;100.00;94710.00;2337669;57;26263;-51
2021/07/24 09:14:12;;;;;;;14.85;11.80;;;21.40;99.90;;;22.09;100.00;94709.00;2336699;58;27142;-51
2021/07/24 09:17:02;;;;;;;18.30;11.73;;;21.60;99.90;;;22.38;100.00;94713.00;2136194;58;26773;-51
2021/07/24 09:19:50;;;;;;;15.65;11.73;;;21.90;99.90;;;22.82;100.00;94698.00;2342927;57;26307;-51
2021/07/24 09:22:38;;;;;;;13.98;11.65;;;22.30;99.90;;;23.34;100.00;94681.00;2129549;57;27783;-51
2021/07/24 09:25:25;;;;;;;14.57;11.00;;;22.70;99.90;;;23.79;100.00;94681.00;2331494;57;26770;-50
2021/07/24 09:31:21;;;;;;;11.98;10.55;;;23.40;99.90;;;24.55;100.00;94660.00;2475089;53;33798;-51
2021/07/24 09:34:09;;;;;;;13.80;10.85;;;23.90;99.90;;;24.88;100.00;94665.00;2219045;55;26959;-51
2021/07/24 09:36:55;;;;;;;12.48;11.12;;;24.50;99.90;;;25.74;100.00;94665.00;2456081;54;26099;-51
2021/07/24 09:39:41;;;;;;;12.52;11.23;;;25.30;99.90;;;27.10;100.00;94661.00;2214295;54;27104;-52
2021/07/24 09:42:34;;;;;;;16.20;10.55;;;26.30;99.90;;;28.13;100.00;94658.00;2463663;53;27183;-52
2021/07/24 09:45:22;;;;;;;12.23;10.85;;;26.80;99.90;;;28.63;100.00;94659.00;2239476;55;25694;-51
2021/07/24 09:51:11;;;;;;;12.30;9.75;;;27.50;99.90;;;30.71;100.00;94645.00;2404283;54;34031;-51
2021/07/24 09:53:58;;;;;;;12.82;10.23;;;28.90;99.90;;;30.78;100.00;94643.00;2156840;56;26617;-51
2021/07/24 09:56:45;;;;;;;11.98;9.57;;;29.00;99.90;;;30.82;100.00;94649.00;2344890;56;25730;-51
2021/07/24 09:59:33;;;;;;;13.80;9.57;;;28.40;99.90;;;29.94;100.00;94631.00;2162106;56;25898;-51
2021/07/24 10:02:30;;;;;;;11.43;10.02;;;28.00;99.90;;;29.82;100.00;94631.00;2392315;55;27741;-51
2021/07/24 10:05:19;;;;;;;10.63;9.52;;;27.60;99.90;;;29.08;100.00;94630.00;2404581;55;26156;-52
2021/07/24 10:08:10;;;;;;;11.07;9.98;;;27.40;99.90;;;28.88;100.00;94634.00;2186714;56;25139;-52
2021/07/24 10:10:56;;;;;;;11.07;9.65;;;27.50;99.90;;;28.91;100.00;94644.00;2429290;55;26595;-52
2021/07/24 10:13:44;;;;;;;11.45;9.73;;;27.60;99.90;;;28.99;100.00;94638.00;2216985;56;26760;-52
2021/07/24 10:16:32;;;;;;;10.35;9.25;;;27.80;99.90;;;29.21;100.00;94635.00;2214257;56;27211;-52
2021/07/24 10:19:19;;;;;;;10.85;9.75;;;27.90;99.90;;;28.84;100.00;94628.00;2214070;56;27172;-52
2021/07/24 10:22:06;;;;;;;12.23;9.63;;;27.80;99.90;;;29.02;100.00;94626.00;2214267;56;26698;-52
2021/07/24 10:24:53;;;;;;;10.45;8.90;;;27.50;99.90;;;28.38;100.00;94623.00;2438558;55;26692;-51
2021/07/24 10:27:42;;;;;;;9.98;8.73;;;27.50;99.90;;;28.99;100.00;94621.00;2214892;56;26667;-52
2021/07/24 10:30:32;;;;;;;12.40;9.15;;;27.20;99.90;;;28.27;100.00;94626.00;2214936;56;27193;-51
2021/07/24 10:33:21;;;;;;;12.20;9.20;;;27.40;99.90;;;28.62;100.00;94622.00;2214555;56;26658;-52
2021/07/24 10:36:15;;;;;;;10.77;9.30;;;27.60;99.90;;;28.77;100.00;94624.00;2440395;55;26099;-52
2021/07/24 10:42:53;;;;;;;13.27;9.68;;;29.50;99.90;;;31.73;100.00;94622.00;2213054;56;25816;-52
2021/07/24 10:45:54;;;;;;;10.25;9.25;;;29.90;99.90;;;31.75;100.00;94617.00;2213915;56;25612;-52
2021/07/24 10:48:44;;;;;;;10.50;9.38;;;30.10;99.90;;;31.22;100.00;94620.00;2213881;56;26905;-52
2021/07/24 10:51:54;;;;;;;12.23;9.77;;;30.40;99.90;;;31.91;100.00;94618.00;2213703;56;25124;-52
2021/07/24 10:58:10;;;;;;;14.82;9.18;;;30.60;99.90;;;32.09;100.00;94618.00;2357394;56;34539;-52
2021/07/24 11:00:58;;;;;;;10.55;9.38;;;30.50;99.90;;;31.33;100.00;94605.00;2157101;58;25796;-52
2021/07/24 11:03:46;;;;;;;11.40;9.52;;;30.20;99.90;;;30.73;100.00;94597.00;2375249;56;25946;-52
2021/07/24 11:06:33;;;;;;;10.38;9.35;;;30.00;99.90;;;30.20;100.00;94600.00;2139266;57;25694;-52
2021/07/24 11:09:29;;;;;;;10.80;9.27;;;30.20;99.90;;;31.35;100.00;94606.00;2135667;58;25702;-50
2021/07/24 11:15:19;;;;;;;10.40;9.27;;;29.70;99.90;;;30.98;100.00;94596.00;2462985;52;34758;-51
2021/07/24 11:18:23;;;;;;;10.73;9.13;;;29.50;99.90;;;30.04;100.00;94593.00;2217571;54;25813;-52
2021/07/24 11:21:09;;;;;;;9.80;8.88;;;30.00;99.90;;;30.78;100.00;94588.00;2216682;54;25594;-52
2021/07/24 11:24:13;;;;;;;10.00;8.65;;;30.10;99.90;;;30.85;100.00;94592.00;2442830;54;25521;-50
2021/07/24 11:27:00;;;;;;;10.85;9.13;;;30.20;99.90;;;31.08;100.00;94586.00;2442646;54;26936;-50
2021/07/24 11:29:46;;;;;;;11.73;8.90;;;29.90;99.90;;;30.50;100.00;94577.00;2218296;54;25624;-50
2021/07/24 11:32:35;;;;;;;9.88;8.88;;;29.40;99.90;;;29.63;100.00;94584.00;2445127;54;25720;-50
2021/07/24 11:35:25;;;;;;;10.00;8.75;;;29.20;99.90;;;29.81;100.00;94574.00;2202374;54;26603;-49
2021/07/24 11:38:25;;;;;;;10.00;8.98;;;28.80;99.90;;;29.20;100.00;94566.00;2426641;54;26241;-50
2021/07/24 11:41:12;;;;;;;10.15;9.13;;;28.40;99.90;;;29.05;100.00;94558.00;2426720;54;27094;-50
2021/07/24 11:44:00;;;;;;;11.20;8.48;;;27.90;99.90;;;28.12;100.00;94566.00;2235722;53;25686;-49
2021/07/24 11:46:57;;;;;;;12.60;9.05;;;27.40;99.90;;;27.85;100.00;94567.00;2240536;54;27074;-49
2021/07/24 11:52:42;;;;;;;9.70;8.70;;;27.00;99.90;;;27.60;100.00;94552.00;2405855;55;34255;-51
2021/07/24 11:55:32;;;;;;;11.68;9.00;;;26.80;99.90;;;27.23;100.00;94547.00;2195218;55;26709;-51
2021/07/24 11:58:19;;;;;;;9.63;8.27;;;27.00;99.90;;;27.63;100.00;94540.00;2433399;55;25509;-51
2021/07/24 12:01:21;;;;;;;11.43;8.65;;;27.90;99.90;;;28.78;100.00;94539.00;2210260;55;27239;-52
2021/07/24 12:04:08;;;;;;;10.07;8.57;;;28.90;99.90;;;29.68;100.00;94531.00;2209804;55;27314;-52
2021/07/24 12:06:59;;;;;;;10.70;8.70;;;29.70;99.90;;;30.67;100.00;94530.00;2432966;55;27679;-51
2021/07/24 12:09:46;;;;;;;10.38;8.20;;;29.90;99.90;;;30.76;100.00;94531.00;2210777;55;25539;-51
2021/07/24 12:12:33;;;;;;;11.00;7.95;;;29.80;99.90;;;30.32;100.00;94533.00;2432914;55;26736;-51
2021/07/24 12:15:19;;;;;;;8.52;7.57;;;30.20;99.90;;;30.67;100.00;94535.00;2209801;55;27705;-52
2021/07/24 12:18:18;;;;;;;8.68;7.78;;;30.00;99.90;;;30.40;100.00;94531.00;2432950;55;26105;-52
2021/07/24 12:21:16;;;;;;;8.07;7.28;;;29.70;99.90;;;29.39;100.00;94525.00;2210144;55;26690;-51
2021/07/24 12:24:05;;;;;;;10.45;7.65;;;29.40;99.90;;;29.52;100.00;94518.00;2210456;55;27515;-52
2021/07/24 12:27:07;;;;;;;8.63;7.50;;;29.40;99.90;;;29.93;100.00;94522.00;2210873;55;27277;-52
2021/07/24 12:29:58;;;;;;;10.15;8.15;;;29.20;99.90;;;29.88;100.00;94522.00;2209136;55;26799;-52
2021/07/24 12:32:44;;;;;;;11.65;7.75;;;29.10;99.90;;;29.81;100.00;94517.00;2198963;55;26733;-52
2021/07/24 12:35:31;;;;;;;9.63;7.45;;;28.90;99.90;;;28.94;100.00;94516.00;2192096;55;25112;-52
2021/07/24 12:38:27;;;;;;;8.05;7.25;;;29.10;99.90;;;29.40;100.00;94511.00;2169554;56;26800;-52
2021/07/24 12:41:14;;;;;;;8.27;7.43;;;29.70;99.90;;;30.33;100.00;94510.00;2168862;56;25697;-51
2021/07/24 12:44:06;;;;;;;8.02;7.22;;;30.10;99.90;;;30.58;100.00;94510.00;2174628;55;26920;-52
2021/07/24 12:50:16;;;;;;;11.95;8.75;;;30.60;99.90;;;31.49;100.00;94509.00;2342513;56;34231;-52
2021/07/24 12:53:03;;;;;;;9.88;7.78;;;30.50;99.90;;;30.75;100.00;94508.00;2114185;58;26205;-51
2021/07/24 12:55:54;;;;;;;8.75;7.85;;;30.30;99.90;;;30.51;100.00;94498.00;2129975;58;25142;-52
2021/07/24 12:58:40;;;;;;;8.50;7.40;;;29.70;99.90;;;29.38;100.00;94500.00;2136317;58;25663;-51
2021/07/24 13:01:27;;;;;;;8.55;7.62;;;29.40;99.90;;;29.52;100.00;94496.00;2136102;58;25703;-51
2021/07/24 13:04:13;;;;;;;9.85;7.87;;;29.40;99.90;;;29.58;100.00;94490.00;2134179;58;25588;-52
2021/07/24 13:07:05;;;;;;;8.88;7.55;;;29.60;99.90;;;30.06;100.00;94487.00;2344838;57;26667;-51
2021/07/24 13:09:51;;;;;;;8.07;7.28;;;29.60;99.90;;;29.65;100.00;94491.00;2135827;58;27317;-52
2021/07/24 13:12:39;;;;;;;10.32;8.00;;;29.50;99.90;;;29.63;100.00;94492.00;2344637;57;26764;-53
2021/07/24 13:15:26;;;;;;;10.95;8.10;;;29.40;99.90;;;29.61;100.00;94490.00;2136377;58;25705;-51
2021/07/24 13:18:12;;;;;;;9.07;7.65;;;29.60;99.90;;;30.09;100.00;94481.00;2136810;58;27247;-50
2021/07/24 13:20:59;;;;;;;9.57;7.55;;;29.90;99.90;;;30.46;100.00;94484.00;2137190;58;26505;-50
2021/07/24 13:23:52;;;;;;;8.63;7.57;;;30.20;99.90;;;30.64;100.00;94485.00;2137067;58;26701;-49
2021/07/24 13:29:43;;;;;;;8.73;7.07;;;29.90;99.90;;;30.21;100.00;94479.00;2137135;58;26619;-49
2021/07/24 13:32:30;;;;;;;10.10;7.93;;;29.80;99.90;;;29.92;100.00;94466.00;2344679;57;26786;-49
2021/07/24 13:35:16;;;;;;;9.25;7.80;;;29.60;99.90;;;29.86;100.00;94459.00;2137533;58;26776;-49
2021/07/24 13:38:04;;;;;;;8.82;7.93;;;29.50;99.90;;;30.08;100.00;94462.00;2344269;57;25171;-49
2021/07/24 13:40:51;;;;;;;9.48;7.25;;;29.50;99.90;;;29.57;100.00;94464.00;2137655;58;26465;-50
2021/07/24 13:43:37;;;;;;;7.68;6.93;;;29.50;99.90;;;29.78;100.00;94463.00;2137599;57;27109;-49